createdAt,value
2022-10-10T00:01:35.272Z,9.59
2022-10-10T00:04:05.990Z,9.15
2022-10-10T00:06:34.499Z,8.86
2022-10-10T00:09:05.072Z,8.76
2022-10-10T00:11:34.648Z,8.87
2022-10-10T00:14:03.062Z,8.89
2022-10-10T00:16:31.657Z,8.87
2022-10-10T00:18:59.664Z,8.73
2022-10-10T00:21:29.401Z,8.73
2022-10-10T00:23:57.687Z,8.80
2022-10-10T00:26:25.869Z,8.71
2022-10-10T00:28:55.291Z,8.77
2022-10-10T00:31:24.955Z,8.87
2022-10-10T00:33:53.219Z,8.89
2022-10-10T00:36:21.645Z,8.73
2022-10-10T00:38:51.211Z,8.58
2022-10-10T00:41:19.381Z,8.51
2022-10-10T00:44:03.260Z,8.50
2022-10-10T00:46:31.255Z,8.61
2022-10-10T00:48:59.926Z,8.93
2022-10-10T00:51:28.189Z,9.17
2022-10-10T00:54:03.331Z,9.36
2022-10-10T00:56:37.328Z,9.40
2022-10-10T00:59:11.299Z,9.28
2022-10-10T01:01:40.910Z,9.14
2022-10-10T01:04:31.695Z,8.99
2022-10-10T01:07:02.908Z,8.91
2022-10-10T01:09:33.606Z,8.89
2022-10-10T01:12:11.988Z,8.95
2022-10-10T01:14:48.040Z,8.89
2022-10-10T01:17:22.078Z,8.71
2022-10-10T01:20:34.625Z,8.49
2022-10-10T01:23:25.851Z,8.18
2022-10-10T01:26:05.975Z,8.10
2022-10-10T01:28:44.955Z,8.41
2022-10-10T01:31:15.201Z,8.57
2022-10-10T01:33:52.668Z,8.69
2022-10-10T01:36:27.899Z,8.64
2022-10-10T01:39:03.814Z,8.68
2022-10-10T01:41:34.994Z,8.60
2022-10-10T01:44:04.323Z,8.55
2022-10-10T01:46:34.478Z,8.46
2022-10-10T01:49:03.439Z,8.40
2022-10-10T01:51:48.368Z,8.36
2022-10-10T01:54:34.467Z,8.29
2022-10-10T01:57:18.151Z,8.08
2022-10-10T02:00:03.348Z,8.17
2022-10-10T02:02:41.255Z,8.22
2022-10-10T02:05:17.279Z,8.24
2022-10-10T02:07:50.885Z,8.32
2022-10-10T02:10:23.441Z,8.24
2022-10-10T02:12:53.503Z,8.28
2022-10-10T02:15:26.699Z,8.36
2022-10-10T02:17:57.249Z,8.38
2022-10-10T02:20:29.508Z,8.32
2022-10-10T02:22:57.983Z,8.32
2022-10-10T02:25:30.583Z,8.21
2022-10-10T02:28:09.554Z,8.18
2022-10-10T02:30:43.715Z,8.07
2022-10-10T02:33:17.052Z,8.08
2022-10-10T02:35:49.502Z,7.99
2022-10-10T02:38:23.866Z,8.08
2022-10-10T02:40:52.564Z,8.08
2022-10-10T02:43:21.253Z,8.09
2022-10-10T02:45:51.186Z,8.08
2022-10-10T02:48:20.005Z,8.09
2022-10-10T02:50:48.317Z,7.98
2022-10-10T02:53:16.322Z,7.94
2022-10-10T02:55:45.979Z,7.94
2022-10-10T02:58:14.638Z,7.90
2022-10-10T03:00:42.690Z,7.86
2022-10-10T03:03:12.195Z,7.90
2022-10-10T03:05:42.017Z,7.96
2022-10-10T03:08:11.871Z,8.09
2022-10-10T03:10:40.168Z,8.12
2022-10-10T03:13:09.429Z,8.07
2022-10-10T03:15:37.439Z,7.96
2022-10-10T03:18:06.407Z,7.91
2022-10-10T03:20:36.220Z,7.87
2022-10-10T03:23:04.463Z,8.06
2022-10-10T03:25:34.929Z,8.06
2022-10-10T03:28:02.998Z,7.64
2022-10-10T03:30:31.336Z,7.59
2022-10-10T03:32:59.424Z,7.64
2022-10-10T03:35:31.431Z,7.75
2022-10-10T03:38:01.292Z,7.90
2022-10-10T03:40:30.542Z,7.92
2022-10-10T03:43:01.545Z,8.06
2022-10-10T03:45:29.474Z,7.80
2022-10-10T03:47:59.029Z,7.55
2022-10-10T03:50:28.298Z,7.65
2022-10-10T03:52:56.540Z,7.69
2022-10-10T03:55:25.911Z,7.72
2022-10-10T03:57:54.064Z,7.75
2022-10-10T04:00:22.181Z,7.58
2022-10-10T04:02:50.380Z,7.61
2022-10-10T04:05:18.852Z,7.65
2022-10-10T04:07:46.858Z,7.72
2022-10-10T04:10:16.358Z,7.70
2022-10-10T04:12:45.531Z,7.74
2022-10-10T04:15:13.468Z,7.76
2022-10-10T04:17:41.249Z,7.76
2022-10-10T04:20:10.180Z,7.72
2022-10-10T04:22:39.780Z,7.67
2022-10-10T04:25:08.318Z,7.65
2022-10-10T04:27:36.339Z,7.68
2022-10-10T04:30:07.099Z,7.61
2022-10-10T04:32:35.056Z,7.64
2022-10-10T04:35:03.904Z,7.67
2022-10-10T04:37:31.971Z,7.62
2022-10-10T04:39:59.812Z,7.47
2022-10-10T04:42:28.242Z,7.38
2022-10-10T04:44:56.174Z,7.24
2022-10-10T04:47:25.651Z,7.10
2022-10-10T04:49:53.438Z,7.07
2022-10-10T04:52:21.422Z,6.92
2022-10-10T04:54:49.361Z,6.49
2022-10-10T04:57:17.315Z,6.41
2022-10-10T04:59:45.237Z,6.40
2022-10-10T05:02:12.985Z,6.31
2022-10-10T05:04:42.395Z,6.44
2022-10-10T05:07:10.207Z,6.72
2022-10-10T05:09:38.354Z,6.87
2022-10-10T05:12:06.990Z,6.83
2022-10-10T05:14:34.881Z,6.52
2022-10-10T05:17:02.748Z,6.35
2022-10-10T05:19:30.718Z,6.26
2022-10-10T05:21:59.971Z,6.17
2022-10-10T05:24:28.483Z,6.28
2022-10-10T05:27:05.570Z,6.04
2022-10-10T05:29:33.433Z,5.95
2022-10-10T05:32:01.382Z,6.13
2022-10-10T05:34:29.429Z,6.43
2022-10-10T05:36:58.259Z,6.57
2022-10-10T05:39:27.695Z,6.71
2022-10-10T05:41:55.794Z,6.82
2022-10-10T05:44:23.898Z,6.97
2022-10-10T05:46:51.763Z,7.11
2022-10-10T05:49:19.713Z,7.33
2022-10-10T05:51:47.615Z,7.39
2022-10-10T05:54:15.534Z,7.43
2022-10-10T05:56:44.764Z,7.43
2022-10-10T05:59:13.722Z,7.35
2022-10-10T06:01:41.734Z,7.28
2022-10-10T06:04:10.196Z,7.33
2022-10-10T06:06:38.349Z,7.55
2022-10-10T06:09:06.315Z,7.64
2022-10-10T06:11:34.263Z,7.74
2022-10-10T06:14:03.502Z,7.84
2022-10-10T06:16:31.761Z,7.92
2022-10-10T06:18:59.735Z,7.96
2022-10-10T06:21:28.143Z,7.83
2022-10-10T06:23:56.395Z,7.80
2022-10-10T06:26:24.315Z,7.98
2022-10-10T06:28:52.194Z,8.12
2022-10-10T06:31:21.436Z,8.31
2022-10-10T06:33:49.527Z,8.51
2022-10-10T06:36:18.146Z,8.87
2022-10-10T06:38:46.754Z,9.25
2022-10-10T06:41:15.397Z,9.51
2022-10-10T06:43:43.226Z,9.96
2022-10-10T06:46:11.882Z,10.44
2022-10-10T06:48:41.120Z,10.96
2022-10-10T06:51:14.661Z,11.58
2022-10-10T06:53:42.812Z,11.95
2022-10-10T06:56:17.422Z,11.45
2022-10-10T06:58:45.857Z,11.63
2022-10-10T07:01:13.787Z,11.78
2022-10-10T07:03:44.520Z,12.00
2022-10-10T07:06:13.006Z,12.54
2022-10-10T07:08:41.805Z,13.21
2022-10-10T07:11:10.699Z,13.88
2022-10-10T07:13:39.260Z,14.45
2022-10-10T07:16:07.845Z,15.08
2022-10-10T07:18:36.907Z,15.57
2022-10-10T07:21:07.015Z,15.86
2022-10-10T07:23:36.588Z,15.82
2022-10-10T07:26:07.713Z,15.99
2022-10-10T07:28:35.848Z,15.41
2022-10-10T07:31:06.261Z,14.22
2022-10-10T07:33:36.053Z,14.02
2022-10-10T07:36:04.027Z,13.88
2022-10-10T07:38:33.544Z,13.52
2022-10-10T07:41:02.328Z,12.52
2022-10-10T07:43:30.242Z,12.91
2022-10-10T07:45:58.185Z,13.66
2022-10-10T07:48:25.984Z,14.10
2022-10-10T07:50:54.096Z,14.74
2022-10-10T07:53:21.916Z,15.33
2022-10-10T07:55:51.298Z,15.75
2022-10-10T07:58:19.258Z,15.98
2022-10-10T08:00:47.223Z,16.07
2022-10-10T08:03:15.192Z,16.46
2022-10-10T08:05:44.308Z,17.05
2022-10-10T08:08:12.530Z,17.82
2022-10-10T08:10:58.152Z,18.49
2022-10-10T08:13:43.661Z,18.89
2022-10-10T08:16:11.956Z,19.39
2022-10-10T08:18:39.953Z,19.86
2022-10-10T08:21:09.638Z,19.97
2022-10-10T08:23:38.831Z,19.83
2022-10-10T08:26:10.066Z,19.85
2022-10-10T08:28:39.954Z,19.31
2022-10-10T08:31:10.311Z,19.32
2022-10-10T08:33:39.222Z,19.53
2022-10-10T08:36:08.203Z,19.62
2022-10-10T08:38:37.742Z,20.01
2022-10-10T08:41:11.479Z,20.66
2022-10-10T08:43:45.969Z,20.92
2022-10-10T08:46:19.851Z,19.86
2022-10-10T08:48:51.222Z,19.93
2022-10-10T08:51:26.868Z,20.51
2022-10-10T08:53:57.788Z,20.63
2022-10-10T08:56:32.854Z,19.38
2022-10-10T08:59:05.998Z,17.37
2022-10-10T09:02:18.697Z,18.01
2022-10-10T09:04:25.492Z,18.97
2022-10-10T09:07:06.016Z,18.63
2022-10-10T09:09:42.538Z,19.49
2022-10-10T09:12:22.576Z,20.08
2022-10-10T09:15:01.309Z,19.28
2022-10-10T09:17:52.856Z,20.52
2022-10-10T09:20:37.652Z,21.50
2022-10-10T09:23:15.135Z,22.42
2022-10-10T09:25:48.532Z,23.15
2022-10-10T09:30:57.196Z,24.27
2022-10-10T09:33:30.115Z,25.22
2022-10-10T09:36:00.273Z,25.81
2022-10-10T09:38:36.926Z,25.59
2022-10-10T09:41:09.990Z,25.52
2022-10-10T09:43:45.555Z,23.60
2022-10-10T09:46:13.312Z,23.34
2022-10-10T09:48:43.039Z,22.48
2022-10-10T09:51:15.878Z,22.33
2022-10-10T09:53:45.019Z,21.86
2022-10-10T09:56:18.668Z,22.32
2022-10-10T09:58:49.888Z,22.69
2022-10-10T10:01:20.338Z,23.06
2022-10-10T10:04:23.505Z,23.36
2022-10-10T10:07:20.365Z,22.98
2022-10-10T10:09:50.370Z,23.60
2022-10-10T10:12:22.778Z,24.21
2022-10-10T10:14:54.719Z,24.52
2022-10-10T10:17:24.725Z,26.56
2022-10-10T10:19:52.603Z,26.52
2022-10-10T10:22:39.466Z,28.23
2022-10-10T10:25:31.535Z,28.72
2022-10-10T10:28:18.109Z,30.84
2022-10-10T10:30:47.973Z,26.04
2022-10-10T10:33:29.118Z,25.07
2022-10-10T10:36:08.783Z,27.33
2022-10-10T10:38:45.752Z,29.28
2022-10-10T10:41:24.311Z,30.58
2022-10-10T10:44:17.817Z,32.10
2022-10-10T10:46:59.665Z,31.32
2022-10-10T10:49:35.998Z,31.28
2022-10-10T10:52:35.302Z,31.60
2022-10-10T10:55:16.701Z,30.62
2022-10-10T10:58:37.246Z,29.63
2022-10-10T11:01:23.568Z,30.27
2022-10-10T11:05:17.481Z,28.31
2022-10-10T11:07:18.376Z,27.81
2022-10-10T11:09:55.782Z,29.68
2022-10-10T11:12:38.895Z,30.64
2022-10-10T11:15:15.770Z,32.95
2022-10-10T11:17:48.076Z,32.68
2022-10-10T11:20:24.666Z,32.24
2022-10-10T11:23:06.550Z,31.83
2022-10-10T11:25:46.484Z,33.19
2022-10-10T11:28:19.806Z,34.10
2022-10-10T11:30:52.579Z,34.88
2022-10-10T11:36:16.574Z,35.85
2022-10-10T11:38:49.967Z,37.13
2022-10-10T11:41:24.236Z,33.95
2022-10-10T11:43:58.413Z,32.66
2022-10-10T11:49:02.441Z,35.01
2022-10-10T11:51:45.259Z,33.32
2022-10-10T11:54:27.178Z,34.28
2022-10-10T11:57:01.371Z,34.50
2022-10-10T11:59:34.210Z,34.04
2022-10-10T12:02:11.572Z,33.74
2022-10-10T12:04:39.802Z,33.39
2022-10-10T12:07:16.562Z,32.90
2022-10-10T12:09:48.081Z,30.43
2022-10-10T12:12:22.842Z,32.17
2022-10-10T12:14:55.750Z,33.55
2022-10-10T12:17:29.881Z,30.39
2022-10-10T12:20:10.283Z,29.62
2022-10-10T12:22:40.029Z,30.69
2022-10-10T12:25:27.045Z,33.01
2022-10-10T12:28:07.521Z,28.75
2022-10-10T12:30:35.852Z,25.84
2022-10-10T12:33:04.067Z,29.34
2022-10-10T12:35:55.555Z,32.45
2022-10-10T12:38:27.767Z,34.58
2022-10-10T12:41:14.345Z,28.47
2022-10-10T12:43:46.147Z,28.92
2022-10-10T12:46:29.350Z,30.13
2022-10-10T12:49:14.223Z,32.97
2022-10-10T12:51:44.010Z,33.24
2022-10-10T12:54:25.118Z,30.86
2022-10-10T12:57:01.594Z,33.62
2022-10-10T12:59:30.143Z,33.27
2022-10-10T13:02:03.722Z,28.13
2022-10-10T13:04:32.273Z,28.64
2022-10-10T13:07:03.101Z,27.89
2022-10-10T13:09:36.266Z,28.93
2022-10-10T13:12:07.159Z,26.34
2022-10-10T13:14:40.689Z,28.62
2022-10-10T13:17:23.867Z,32.55
2022-10-10T13:19:52.994Z,33.41
2022-10-10T13:22:21.967Z,28.77
2022-10-10T13:24:53.266Z,28.37
2022-10-10T13:27:24.784Z,29.01
2022-10-10T13:29:54.630Z,29.84
2022-10-10T13:32:26.850Z,32.81
2022-10-10T13:34:58.133Z,34.65
2022-10-10T13:37:27.176Z,31.39
2022-10-10T13:39:56.825Z,30.86
2022-10-10T13:42:31.129Z,28.84
2022-10-10T13:45:00.485Z,28.82
2022-10-10T13:47:54.636Z,30.21
2022-10-10T13:50:27.640Z,32.29
2022-10-10T13:53:33.256Z,34.19
2022-10-10T13:56:07.188Z,35.80
2022-10-10T13:58:43.030Z,36.51
2022-10-10T14:01:33.270Z,36.11
2022-10-10T14:04:06.737Z,36.60
2022-10-10T14:06:36.129Z,37.23
2022-10-10T14:09:10.964Z,37.20
2022-10-10T14:11:42.091Z,34.41
2022-10-10T14:14:17.683Z,29.79
2022-10-10T14:16:45.639Z,28.61
2022-10-10T14:19:19.317Z,29.46
2022-10-10T14:21:47.396Z,30.27
2022-10-10T14:24:16.207Z,30.19
2022-10-10T14:26:45.528Z,29.98
2022-10-10T14:29:15.597Z,30.87
2022-10-10T14:31:44.255Z,30.34
2022-10-10T14:34:12.605Z,28.89
2022-10-10T14:36:45.259Z,28.09
2022-10-10T14:39:15.118Z,27.11
2022-10-10T14:41:43.442Z,26.27
2022-10-10T14:44:13.379Z,25.84
2022-10-10T14:46:42.022Z,25.60
2022-10-10T14:49:18.529Z,25.58
2022-10-10T14:51:47.166Z,25.76
2022-10-10T14:54:15.751Z,26.31
2022-10-10T14:57:06.458Z,27.54
2022-10-10T14:59:49.448Z,27.81
2022-10-10T15:02:20.157Z,27.77
2022-10-10T15:04:48.211Z,27.91
2022-10-10T15:07:16.915Z,28.77
2022-10-10T15:12:45.320Z,27.27
2022-10-10T15:15:16.093Z,27.27
2022-10-10T15:17:44.411Z,28.45
2022-10-10T15:20:14.242Z,29.44
2022-10-10T15:22:43.057Z,29.25
2022-10-10T15:25:11.479Z,28.91
2022-10-10T15:27:39.832Z,28.87
2022-10-10T15:30:08.823Z,28.32
2022-10-10T15:32:40.928Z,27.94
2022-10-10T15:35:12.347Z,27.47
2022-10-10T15:37:40.465Z,27.55
2022-10-10T15:40:09.227Z,28.11
2022-10-10T15:42:37.047Z,28.40
2022-10-10T15:45:07.378Z,28.99
2022-10-10T15:47:36.423Z,29.02
2022-10-10T15:50:11.073Z,28.67
2022-10-10T15:52:40.236Z,28.14
2022-10-10T15:55:09.283Z,28.08
2022-10-10T15:57:37.678Z,27.70
2022-10-10T16:00:08.851Z,26.97
2022-10-10T16:02:40.323Z,26.31
2022-10-10T16:05:10.929Z,25.83
2022-10-10T16:07:46.959Z,25.52
2022-10-10T16:10:16.176Z,25.07
2022-10-10T16:12:44.362Z,24.56
2022-10-10T16:15:12.607Z,24.08
2022-10-10T16:17:40.529Z,23.70
2022-10-10T16:20:11.266Z,23.35
2022-10-10T16:22:39.198Z,23.02
2022-10-10T16:25:21.751Z,22.75
2022-10-10T16:27:50.767Z,22.49
2022-10-10T16:30:20.038Z,22.37
2022-10-10T16:32:48.687Z,22.10
2022-10-10T16:35:18.728Z,21.75
2022-10-10T16:37:49.493Z,21.48
2022-10-10T16:40:17.723Z,21.29
2022-10-10T16:42:45.865Z,21.28
2022-10-10T16:45:13.886Z,21.14
2022-10-10T16:47:42.953Z,21.10
2022-10-10T16:50:11.461Z,21.12
2022-10-10T16:52:40.684Z,21.06
2022-10-10T16:55:11.287Z,21.17
2022-10-10T16:57:40.033Z,21.16
2022-10-10T17:00:10.215Z,20.88
2022-10-10T17:02:42.053Z,20.76
2022-10-10T17:05:11.001Z,20.68
2022-10-10T17:07:40.507Z,20.74
2022-10-10T17:10:09.351Z,20.77
2022-10-10T17:12:37.255Z,20.76
2022-10-10T17:15:06.686Z,20.45
2022-10-10T17:17:37.077Z,20.15
2022-10-10T17:20:08.832Z,19.90
2022-10-10T17:22:38.142Z,19.82
2022-10-10T17:25:34.213Z,19.92
2022-10-10T17:28:03.610Z,19.92
2022-10-10T17:30:31.402Z,19.71
2022-10-10T17:32:59.938Z,19.63
2022-10-10T17:35:28.192Z,19.32
2022-10-10T17:38:04.450Z,19.43
2022-10-10T17:40:44.883Z,19.74
2022-10-10T17:43:14.357Z,20.01
2022-10-10T17:45:42.531Z,20.15
2022-10-10T17:48:10.498Z,19.73
2022-10-10T17:50:40.168Z,18.91
2022-10-10T17:53:10.541Z,18.31
2022-10-10T17:55:42.824Z,17.56
2022-10-10T17:58:10.822Z,17.40
2022-10-10T18:00:43.367Z,17.04
2022-10-10T18:03:12.372Z,16.82
2022-10-10T18:05:40.853Z,16.80
2022-10-10T18:08:09.765Z,16.87
2022-10-10T18:10:41.303Z,16.97
2022-10-10T18:13:10.349Z,16.87
2022-10-10T18:15:38.340Z,16.94
2022-10-10T18:18:08.116Z,17.09
2022-10-10T18:20:37.784Z,17.34
2022-10-10T18:23:06.163Z,17.09
2022-10-10T18:25:34.784Z,17.08
2022-10-10T20:17:54.361Z,16.26
2022-10-10T20:20:22.750Z,16.14
2022-10-10T20:22:50.822Z,16.08
2022-10-10T20:25:19.368Z,16.26
2022-10-10T21:40:42.398Z,16.01
2022-10-10T21:44:48.019Z,16.30
2022-10-10T23:42:12.522Z,14.07
